Time;durP1;ratioP1;P1;durP2;ratioP2;P2;SDS_P1;SDS_P2;PMS_P1;PMS_P2;Temp;Humidity;BMP_temperature;BMP_pressure;BME280_temperature;BME280_humidity;BME280_pressure;Samples;Min_cycle;Max_cycle;Signal;HPM_P1;HPM_P2
2021/06/23 00:00:44;;;;;;;15.95;4.03;;;;;;;23.90;59.67;100313.70;1752031;82;21770;-55
2021/06/23 00:03:50;;;;;;;9.73;4.08;;;;;;;23.90;59.56;100316.49;1752095;82;21352;-55
2021/06/23 00:06:55;;;;;;;8.58;3.83;;;;;;;23.89;59.82;100318.47;1752171;82;21423;-54
2021/06/23 00:10:02;;;;;;;10.43;3.70;;;;;;;23.87;59.82;100317.88;1749110;81;21443;-55
2021/06/23 00:13:08;;;;;;;12.78;3.95;;;;;;;23.86;59.71;100309.75;1752008;82;21431;-57
2021/06/23 00:16:14;;;;;;;10.75;4.40;;;;;;;23.85;59.57;100302.48;1751990;82;21470;-54
2021/06/23 00:19:19;;;;;;;9.20;3.80;;;;;;;23.84;59.60;100302.17;1752066;82;21905;-54
2021/06/23 00:22:24;;;;;;;8.78;3.65;;;;;;;23.81;59.54;100298.52;1752095;82;21348;-54
2021/06/23 00:25:30;;;;;;;14.45;3.55;;;;;;;23.80;59.71;100303.25;1752114;82;21435;-55
2021/06/23 00:28:35;;;;;;;13.28;4.37;;;;;;;23.78;59.78;100301.30;1752039;82;21376;-56
2021/06/23 00:31:40;;;;;;;14.28;4.00;;;;;;;23.75;59.84;100296.23;1751995;82;21383;-56
2021/06/23 00:34:46;;;;;;;12.93;4.53;;;;;;;23.73;59.92;100313.81;1752117;82;21375;-55
2021/06/23 00:37:51;;;;;;;12.58;5.00;;;;;;;23.70;60.09;100312.95;1751966;82;21352;-54
2021/06/23 00:40:57;;;;;;;11.18;4.85;;;;;;;23.64;60.02;100317.63;1751959;82;21387;-56
2021/06/23 00:44:02;;;;;;;14.20;4.35;;;;;;;23.61;60.38;100322.34;1751950;82;21764;-55
2021/06/23 00:47:08;;;;;;;10.50;4.28;;;;;;;23.59;60.52;100329.31;1726428;82;21343;-54
2021/06/23 00:50:14;;;;;;;11.65;4.28;;;;;;;23.55;60.63;100330.93;1751500;82;21262;-54
2021/06/23 00:53:34;;;;;;;14.40;4.92;;;;;;;23.53;60.56;100333.17;1751814;82;21333;-54
2021/06/23 00:56:40;;;;;;;11.50;4.10;;;;;;;23.51;60.73;100343.75;1743316;82;21366;-54
2021/06/23 00:59:46;;;;;;;8.83;3.85;;;;;;;23.48;60.95;100347.08;1751686;82;21376;-54
2021/06/23 01:02:51;;;;;;;11.50;4.40;;;;;;;23.47;60.90;100342.03;1743401;82;21342;-57
2021/06/23 01:06:01;;;;;;;19.12;4.55;;;;;;;23.45;60.97;100343.41;1751740;82;21234;-55
2021/06/23 01:09:06;;;;;;;15.78;4.55;;;;;;;23.43;60.97;100342.81;1743222;82;21751;-55
2021/06/23 01:12:35;;;;;;;9.60;5.12;;;;;;;23.41;60.97;100354.25;1748046;80;21749;-54
2021/06/23 01:15:41;;;;;;;8.00;5.03;;;;;;;23.41;61.01;100345.02;1735872;82;21425;-53
2021/06/23 01:18:47;;;;;;;15.03;4.90;;;;;;;23.40;61.02;100341.94;1741479;82;21207;-55
2021/06/23 01:21:55;;;;;;;11.15;4.47;;;;;;;23.41;60.85;100354.80;1747733;81;21207;-54
2021/06/23 01:25:00;;;;;;;8.23;4.12;;;;;;;23.42;60.88;100359.30;1735960;82;21378;-54
2021/06/23 01:28:07;;;;;;;11.33;4.47;;;;;;;23.41;60.81;100365.97;1741570;82;21370;-55
2021/06/23 01:31:22;;;;;;;8.45;4.17;;;;;;;23.41;60.87;100364.58;1728255;82;21282;-54
2021/06/23 01:34:28;;;;;;;7.45;3.77;;;;;;;23.37;61.03;100366.22;1715651;83;21345;-54
2021/06/23 01:37:33;;;;;;;11.78;4.40;;;;;;;23.32;61.21;100364.20;1746953;82;21226;-54
2021/06/23 01:40:40;;;;;;;9.48;4.00;;;;;;;23.24;61.49;100373.00;1735894;82;21308;-53
2021/06/23 01:43:46;;;;;;;7.75;3.90;;;;;;;23.20;61.74;100370.41;1735889;82;21315;-55
2021/06/23 01:46:52;;;;;;;12.73;4.37;;;;;;;23.16;61.84;100366.46;1735979;82;21370;-55
2021/06/23 01:49:58;;;;;;;10.05;4.53;;;;;;;23.12;61.97;100351.88;1736362;82;21362;-54
2021/06/23 01:53:04;;;;;;;28.92;16.42;;;;;;;23.10;62.02;100351.28;1735835;82;21336;-55
2021/06/23 01:56:12;;;;;;;58.70;28.32;;;;;;;23.07;62.15;100342.03;1735965;82;21264;-56
2021/06/23 01:59:20;;;;;;;54.58;25.97;;;;;;;23.05;62.24;100344.23;1735848;82;21449;-56
2021/06/23 02:02:38;;;;;;;36.98;18.23;;;;;;;23.04;62.22;100342.55;1721794;82;21232;-55
2021/06/23 02:05:53;;;;;;;25.25;10.68;;;;;;;23.02;62.27;100340.55;1736012;82;21754;-56
2021/06/23 02:09:08;;;;;;;15.15;5.85;;;;;;;23.02;62.16;100334.97;1736034;82;21331;-56
2021/06/23 02:12:34;;;;;;;13.53;6.03;;;;;;;23.01;62.17;100338.84;1734240;80;21386;-55
2021/06/23 02:15:41;;;;;;;9.18;4.87;;;;;;;22.99;62.17;100335.48;1726334;83;21221;-55
2021/06/23 02:18:47;;;;;;;10.40;5.10;;;;;;;22.99;62.08;100337.70;1726272;83;21753;-55
2021/06/23 02:21:55;;;;;;;7.80;4.00;;;;;;;23.03;62.21;100340.84;1724643;83;21304;-55
2021/06/23 02:25:14;;;;;;;7.95;3.87;;;;;;;23.05;62.26;100345.08;1726326;83;21201;-53
2021/06/23 02:28:22;;;;;;;10.13;4.25;;;;;;;23.08;61.89;100337.58;1726538;82;21336;-54
2021/06/23 02:31:28;;;;;;;11.10;4.53;;;;;;;23.09;61.74;100335.06;1726801;83;21352;-56
2021/06/23 02:34:33;;;;;;;7.60;4.12;;;;;;;23.11;61.78;100336.20;1725876;83;21274;-55
2021/06/23 02:37:41;;;;;;;14.10;4.17;;;;;;;23.14;61.78;100340.73;1725919;83;21209;-54
2021/06/23 02:40:53;;;;;;;8.55;5.15;;;;;;;23.17;61.75;100336.56;1757317;81;21749;-55
2021/06/23 02:43:59;;;;;;;10.60;4.30;;;;;;;23.19;61.95;100334.36;1748745;81;21201;-54
2021/06/23 02:47:07;;;;;;;11.12;4.12;;;;;;;23.20;61.72;100333.25;1742920;81;21331;-55
2021/06/23 02:50:19;;;;;;;11.68;5.20;;;;;;;23.20;61.69;100332.70;1745262;81;21263;-55
2021/06/23 02:53:35;;;;;;;7.60;4.00;;;;;;;23.24;61.72;100333.03;1765357;81;21572;-56
2021/06/23 02:56:40;;;;;;;9.68;4.40;;;;;;;23.28;61.77;100345.40;1728822;82;21375;-56
2021/06/23 02:59:48;;;;;;;8.75;5.08;;;;;;;23.27;61.90;100347.38;1765425;81;21370;-55
2021/06/23 03:02:54;;;;;;;12.82;4.58;;;;;;;23.29;62.02;100342.92;1748524;81;21256;-55
2021/06/23 03:06:00;;;;;;;6.92;4.10;;;;;;;23.30;61.95;100347.39;1765457;81;21386;-53
2021/06/23 03:09:06;;;;;;;10.30;4.03;;;;;;;23.31;62.01;100348.52;1748492;81;21583;-54
2021/06/23 03:12:16;;;;;;;9.45;4.12;;;;;;;23.31;62.19;100361.64;1763699;81;21320;-54
2021/06/23 03:15:25;;;;;;;9.03;4.08;;;;;;;23.31;62.51;100359.70;1747016;82;21303;-55
2021/06/23 03:18:53;;;;;;;8.08;4.10;;;;;;;23.31;62.48;100358.84;1765538;81;21335;-54
2021/06/23 03:21:59;;;;;;;6.95;3.52;;;;;;;23.30;62.58;100364.16;1748683;81;21205;-54
2021/06/23 03:25:04;;;;;;;7.03;3.92;;;;;;;23.32;62.64;100374.53;1765447;81;21398;-53
2021/06/23 03:28:11;;;;;;;8.48;3.83;;;;;;;23.34;62.69;100372.33;1751548;81;21395;-55
2021/06/23 03:31:17;;;;;;;15.53;4.17;;;;;;;23.37;62.83;100379.61;1765578;81;21378;-54
2021/06/23 03:34:23;;;;;;;12.47;3.85;;;;;;;23.43;63.35;100386.98;1749308;81;21213;-55
2021/06/23 03:37:29;;;;;;;11.95;4.00;;;;;;;23.49;62.67;100389.27;1765623;81;21181;-55
2021/06/23 03:40:34;;;;;;;13.18;4.03;;;;;;;23.54;62.28;100392.14;1742228;81;21236;-54
2021/06/23 03:43:40;;;;;;;9.83;4.30;;;;;;;23.60;62.29;100396.69;1768727;81;21256;-53
2021/06/23 03:46:49;;;;;;;8.23;3.85;;;;;;;23.64;61.89;100396.47;1768764;81;21197;-54
2021/06/23 03:49:56;;;;;;;15.10;4.05;;;;;;;23.70;61.88;100405.20;1768615;81;21280;-54
2021/06/23 03:53:02;;;;;;;10.80;3.50;;;;;;;23.74;61.71;100402.17;1769000;81;21188;-53
2021/06/23 03:56:08;;;;;;;9.13;3.70;;;;;;;23.80;62.08;100408.11;1737962;82;21286;-52
2021/06/23 03:59:12;;;;;;;10.68;4.10;;;;;;;23.89;62.51;100407.10;1738308;82;21218;-53
2021/06/23 04:02:19;;;;;;;15.75;4.35;;;;;;;23.97;62.42;100411.72;1721358;82;21366;-53
2021/06/23 04:05:25;;;;;;;15.18;4.30;;;;;;;24.03;62.13;100411.20;1738434;82;21263;-53
2021/06/23 04:08:32;;;;;;;11.78;4.03;;;;;;;24.08;61.49;100414.06;1738346;82;21188;-53
2021/06/23 04:11:39;;;;;;;10.20;4.97;;;;;;;24.07;61.40;100416.58;1738324;82;21805;-54
2021/06/23 04:14:45;;;;;;;19.12;4.53;;;;;;;24.07;61.47;100417.98;1738486;82;21287;-57
2021/06/23 04:17:52;;;;;;;17.15;4.17;;;;;;;24.07;61.42;100419.38;1738345;82;21215;-56
2021/06/23 04:20:59;;;;;;;21.50;3.92;;;;;;;24.06;61.55;100423.27;1738395;82;21240;-55
2021/06/23 04:24:06;;;;;;;13.48;3.80;;;;;;;24.05;61.60;100428.03;1738347;82;21204;-54
2021/06/23 04:27:12;;;;;;;28.50;5.30;;;;;;;24.08;61.70;100419.66;1722770;82;21331;-55
2021/06/23 04:30:20;;;;;;;19.60;4.30;;;;;;;24.13;61.58;100424.77;1738886;81;21312;-55
2021/06/23 04:33:26;;;;;;;11.00;4.17;;;;;;;24.20;61.52;100431.53;1737154;81;21176;-55
2021/06/23 04:36:33;;;;;;;15.30;3.62;;;;;;;24.26;61.48;100433.30;1729256;83;21267;-53
2021/06/23 04:39:38;;;;;;;19.45;4.60;;;;;;;24.30;61.36;100438.64;1718863;83;21327;-55
2021/06/23 04:42:46;;;;;;;14.85;4.12;;;;;;;24.34;61.48;100450.44;1729402;80;21220;-53
2021/06/23 04:45:51;;;;;;;12.70;4.17;;;;;;;24.41;61.51;100451.63;1729767;83;21200;-55
2021/06/23 04:48:58;;;;;;;14.23;3.80;;;;;;;24.45;61.50;100452.23;1708260;84;21248;-55
2021/06/23 04:52:08;;;;;;;10.93;4.00;;;;;;;24.49;61.23;100443.61;1721615;83;21216;-54
2021/06/23 04:55:16;;;;;;;15.55;4.37;;;;;;;24.54;60.95;100446.47;1708436;84;21366;-54
2021/06/23 04:58:31;;;;;;;16.42;4.15;;;;;;;24.58;61.20;100464.41;1729164;82;21272;-54
2021/06/23 05:01:38;;;;;;;14.65;4.80;;;;;;;24.63;60.90;100460.26;1696660;83;21239;-55
2021/06/23 05:04:43;;;;;;;11.90;4.08;;;;;;;24.66;60.92;100460.27;1724386;83;21266;-54
2021/06/23 05:07:49;;;;;;;15.35;4.35;;;;;;;24.70;60.56;100454.47;1737421;82;21219;-53
2021/06/23 05:10:54;;;;;;;9.70;4.35;;;;;;;24.74;61.04;100453.67;1737510;82;21729;-56
2021/06/23 05:13:59;;;;;;;14.18;4.55;;;;;;;24.74;60.54;100438.27;1737557;82;21283;-56
2021/06/23 05:17:06;;;;;;;17.30;4.55;;;;;;;24.77;60.34;100441.08;1737425;82;21208;-55
2021/06/23 05:20:13;;;;;;;19.42;4.20;;;;;;;24.82;60.71;100433.58;1737657;82;21220;-54
2021/06/23 05:23:19;;;;;;;20.70;4.70;;;;;;;24.89;59.97;100443.16;1755303;81;21732;-55
2021/06/23 05:26:25;;;;;;;10.15;4.47;;;;;;;24.96;60.28;100453.56;1741477;81;21228;-55
2021/06/23 05:29:30;;;;;;;17.85;4.75;;;;;;;25.04;60.54;100464.27;1763117;81;21268;-55
2021/06/23 05:32:36;;;;;;;20.32;6.40;;;;;;;25.11;60.45;100469.11;1753515;81;21263;-54
2021/06/23 05:35:40;;;;;;;19.30;5.62;;;;;;;25.15;60.55;100468.84;1739535;81;21216;-54
2021/06/23 05:38:46;;;;;;;19.50;5.40;;;;;;;25.26;60.46;100475.39;1763428;81;21288;-54
2021/06/23 05:41:52;;;;;;;21.75;5.53;;;;;;;25.31;60.25;100479.05;1737913;82;21283;-55
2021/06/23 05:44:58;;;;;;;18.00;4.47;;;;;;;25.39;59.75;100473.52;1781139;80;21223;-54
2021/06/23 05:48:04;;;;;;;21.68;5.83;;;;;;;25.48;59.41;100485.94;1746505;82;21208;-55
2021/06/23 05:51:10;;;;;;;25.35;5.37;;;;;;;25.62;59.76;100501.16;1769890;80;21194;-56
2021/06/23 05:54:15;;;;;;;18.17;6.03;;;;;;;25.79;59.62;100497.06;1767501;80;21268;-56
2021/06/23 05:57:19;;;;;;;18.25;5.45;;;;;;;25.98;58.55;100498.27;1751680;81;21181;-55
2021/06/23 06:00:26;;;;;;;16.02;5.55;;;;;;;26.16;58.18;100497.80;1755350;81;21239;-54
2021/06/23 06:03:31;;;;;;;14.68;5.50;;;;;;;26.40;57.46;100492.57;1751702;81;21219;-54
2021/06/23 06:06:35;;;;;;;16.97;4.78;;;;;;;26.69;57.88;100485.92;1750802;81;21181;-56
2021/06/23 06:09:40;;;;;;;16.52;4.42;;;;;;;26.90;56.50;100486.20;1759450;81;21733;-54
2021/06/23 06:12:47;;;;;;;19.05;4.72;;;;;;;27.00;55.48;100470.76;1756841;81;21186;-53
2021/06/23 06:15:52;;;;;;;16.87;4.78;;;;;;;27.08;55.58;100451.38;1737854;81;21217;-55
2021/06/23 06:18:59;;;;;;;13.15;4.55;;;;;;;27.16;55.35;100443.74;1761646;81;21196;-55
2021/06/23 06:22:04;;;;;;;24.95;5.67;;;;;;;27.27;55.09;100417.36;1761216;81;21193;-50
2021/06/23 06:25:11;;;;;;;20.88;6.10;;;;;;;27.32;54.10;100449.66;1744356;81;21212;-56
2021/06/23 06:28:17;;;;;;;25.12;6.47;;;;;;;27.29;53.58;100450.23;1759510;81;21275;-56
2021/06/23 06:31:23;;;;;;;26.33;7.08;;;;;;;27.26;54.36;100451.32;1770008;81;21340;-55
2021/06/23 06:34:28;;;;;;;18.45;5.53;;;;;;;27.38;55.41;100494.95;1776044;79;21201;-55
2021/06/23 06:37:34;;;;;;;17.55;5.00;;;;;;;27.53;55.29;100492.65;1742327;81;21169;-55
2021/06/23 06:40:39;;;;;;;24.75;5.58;;;;;;;27.62;55.03;100503.62;1773087;80;21207;-54
2021/06/23 06:43:45;;;;;;;22.98;5.83;;;;;;;27.58;54.75;100499.13;1749905;82;21385;-54
2021/06/23 06:46:51;;;;;;;29.40;6.08;;;;;;;27.57;54.08;100491.83;1752046;82;21393;-55
2021/06/23 06:49:56;;;;;;;18.62;5.25;;;;;;;27.62;54.42;100509.25;1752168;81;22105;-58
2021/06/23 06:53:01;;;;;;;17.95;5.08;;;;;;;27.62;53.93;100507.84;1752319;82;21892;-57
2021/06/23 06:56:08;;;;;;;19.20;6.15;;;;;;;27.65;54.35;100515.71;1757444;79;21188;-58
2021/06/23 06:59:13;;;;;;;26.62;6.00;;;;;;;27.68;53.81;100494.89;1752535;81;21305;-58
2021/06/23 07:02:21;;;;;;;24.37;6.72;;;;;;;27.72;53.80;100498.80;1767434;80;21293;-58
2021/06/23 07:05:26;;;;;;;19.95;5.67;;;;;;;27.80;53.53;100489.78;1776947;79;21416;-59
2021/06/23 07:08:32;;;;;;;23.32;5.30;;;;;;;27.84;53.73;100493.69;1766921;79;21215;-60
2021/06/23 07:11:39;;;;;;;31.15;5.75;;;;;;;27.98;53.64;100499.60;1752541;80;21385;-57
2021/06/23 07:14:45;;;;;;;32.98;6.28;;;;;;;28.13;53.48;100501.52;1750838;82;21215;-58
2021/06/23 07:17:52;;;;;;;24.20;5.15;;;;;;;28.24;53.62;100513.83;1754164;80;21326;-58
2021/06/23 07:20:56;;;;;;;21.15;5.72;;;;;;;28.32;53.49;100541.98;1763482;81;21859;-58
2021/06/23 07:24:01;;;;;;;22.22;5.67;;;;;;;28.39;53.04;100538.27;1766985;79;21281;-57
2021/06/23 07:27:10;;;;;;;24.95;5.60;;;;;;;28.39;53.52;100532.64;1751603;82;21545;-58
2021/06/23 07:30:15;;;;;;;25.30;5.12;;;;;;;28.44;53.37;100508.67;1766812;80;21774;-58
2021/06/23 07:33:21;;;;;;;20.57;4.97;;;;;;;28.41;53.05;100498.84;1773362;81;21407;-58
2021/06/23 07:36:37;;;;;;;21.10;5.03;;;;;;;28.42;52.94;100506.15;1780064;79;21289;-58
2021/06/23 07:39:43;;;;;;;24.77;5.80;;;;;;;28.45;53.15;100500.48;1780033;79;21314;-59
2021/06/23 07:42:49;;;;;;;27.82;5.35;;;;;;;28.42;52.24;100522.20;1779786;80;21193;-57
2021/06/23 07:45:57;;;;;;;35.28;6.20;;;;;;;28.47;52.83;100523.03;1763750;81;22198;-57
2021/06/23 07:49:04;;;;;;;27.67;5.60;;;;;;;28.56;52.67;100519.90;1776910;80;21244;-57
2021/06/23 07:52:12;;;;;;;24.67;6.03;;;;;;;28.66;53.04;100524.63;1747120;81;21733;-57
2021/06/23 08:09:00;;;;;;;22.82;5.78;;;;;;;28.68;52.46;100560.42;1710541;82;21225;-54
2021/06/23 08:15:19;;;;;;;22.65;5.37;;;;;;;28.62;52.42;100512.28;1715068;82;21288;-57
2021/06/23 08:18:25;;;;;;;18.10;5.40;;;;;;;28.55;52.87;100536.55;1721914;83;21250;-53
2021/06/23 08:21:31;;;;;;;22.98;5.97;;;;;;;28.46;52.82;100508.68;1716018;83;21377;-53
2021/06/23 08:24:38;;;;;;;34.48;6.70;;;;;;;28.42;53.96;100516.56;1704224;84;21475;-53
2021/06/23 08:27:43;;;;;;;27.87;7.28;;;;;;;28.41;54.25;100527.56;1717312;83;21878;-53
2021/06/23 08:30:48;;;;;;;31.25;6.55;;;;;;;28.39;54.78;100560.25;1703769;83;21293;-54
2021/06/23 08:33:53;;;;;;;29.32;6.78;;;;;;;28.41;55.08;100565.59;1715233;83;21287;-53
2021/06/23 08:37:00;;;;;;;25.08;7.37;;;;;;;28.39;55.11;100563.07;1705546;83;21193;-53
2021/06/23 08:40:06;;;;;;;32.53;7.53;;;;;;;28.36;55.50;100562.23;1698636;83;21356;-53
2021/06/23 08:43:12;;;;;;;30.02;6.83;;;;;;;28.34;55.14;100566.45;1716400;83;21845;-54
2021/06/23 08:46:17;;;;;;;20.15;5.55;;;;;;;28.36;54.98;100561.39;1739039;80;21824;-54
2021/06/23 08:49:23;;;;;;;26.57;6.53;;;;;;;28.34;54.74;100553.23;1720995;83;21241;-54
2021/06/23 08:52:28;;;;;;;26.62;6.40;;;;;;;28.30;54.41;100549.31;1743977;82;21200;-53
2021/06/23 08:55:34;;;;;;;32.17;6.12;;;;;;;28.39;54.17;100551.80;1771079;81;21217;-54
2021/06/23 08:58:39;;;;;;;30.62;6.58;;;;;;;28.54;54.29;100557.38;1721234;83;21333;-54
2021/06/23 09:01:44;;;;;;;35.90;7.22;;;;;;;28.66;53.80;100539.58;1744458;82;21192;-53
2021/06/23 09:05:13;;;;;;;33.95;6.95;;;;;;;28.66;53.82;100545.77;1774275;81;21242;-55
2021/06/23 09:08:19;;;;;;;27.42;7.05;;;;;;;28.80;54.54;100538.34;1772116;79;21363;-54
2021/06/23 09:11:26;;;;;;;30.72;7.03;;;;;;;28.86;53.25;100544.25;1721662;83;21237;-54
2021/06/23 09:14:34;;;;;;;28.12;6.70;;;;;;;28.89;52.91;100523.94;1743759;82;21346;-55
2021/06/23 09:17:42;;;;;;;34.27;9.20;;;;;;;29.01;52.42;100530.03;1771014;81;21198;-54
2021/06/23 09:20:50;;;;;;;31.07;7.35;;;;;;;29.21;52.34;100534.98;1721477;83;21392;-54
2021/06/23 09:24:04;;;;;;;26.73;6.35;;;;;;;29.26;51.54;100531.27;1744151;82;21196;-54
2021/06/23 09:27:25;;;;;;;24.77;6.03;;;;;;;29.26;51.68;100541.73;1752748;82;21362;-53
2021/06/23 09:30:46;;;;;;;30.47;7.23;;;;;;;29.26;51.60;100542.55;1731693;81;21377;-52
2021/06/23 09:33:54;;;;;;;35.85;7.28;;;;;;;29.38;51.59;100557.13;1752967;82;21216;-53
2021/06/23 09:36:59;;;;;;;32.33;7.03;;;;;;;29.38;51.59;100557.13;1752801;82;21374;-53
2021/06/23 09:40:29;;;;;;;32.53;7.08;;;;;;;29.42;51.45;100560.19;1752845;81;21400;-52
2021/06/23 09:43:47;;;;;;;42.40;7.42;;;;;;;29.41;50.74;100557.09;1752845;82;21199;-53
2021/06/23 09:46:54;;;;;;;43.33;7.70;;;;;;;29.41;51.15;100566.98;1726758;81;21231;-52
2021/06/23 09:50:02;;;;;;;26.30;7.50;;;;;;;29.63;51.89;100574.39;1734387;82;21239;-52
2021/06/23 09:53:19;;;;;;;28.15;6.53;;;;;;;29.74;51.35;100575.45;1734280;82;21860;-52
2021/06/23 09:56:42;;;;;;;34.90;8.90;;;;;;;29.74;51.35;100575.45;1734798;82;21378;-53
2021/06/23 09:59:49;;;;;;;28.32;7.15;;;;;;;29.79;52.05;100581.05;1734976;82;21244;-54
2021/06/23 10:02:53;;;;;;;36.65;7.05;;;;;;;29.83;50.94;100582.13;1757596;81;21216;-54
2021/06/23 10:05:58;;;;;;;35.68;7.97;;;;;;;29.86;50.06;100580.11;1757526;81;21220;-53
2021/06/23 10:09:27;;;;;;;38.33;8.20;;;;;;;29.96;51.04;100586.22;1760859;81;21275;-51
2021/06/23 10:12:29;;;;;;;36.63;7.75;;;;;;;29.96;51.04;100586.22;1732148;81;21188;-52
2021/06/23 10:15:36;;;;;;;35.70;8.15;;;;;;;30.05;50.41;100578.80;1733659;82;21295;-52
2021/06/23 10:18:41;;;;;;;29.87;7.47;;;;;;;30.03;50.70;100573.42;1747674;81;21182;-52
2021/06/23 10:21:47;;;;;;;34.85;6.85;;;;;;;30.14;50.73;100579.83;1736406;82;21217;-53
2021/06/23 10:24:53;;;;;;;27.75;7.08;;;;;;;30.23;51.02;100570.42;1737030;82;21508;-53
2021/06/23 10:27:58;;;;;;;32.83;6.35;;;;;;;30.36;50.68;100572.53;1730465;82;21371;-53
2021/06/23 10:31:03;;;;;;;29.65;7.72;;;;;;;30.58;51.19;100572.80;1736936;82;21523;-52
2021/06/23 10:34:10;;;;;;;37.25;6.90;;;;;;;30.86;50.88;100572.42;1749472;81;21228;-53
2021/06/23 10:37:15;;;;;;;42.08;7.62;;;;;;;31.17;50.30;100570.83;1737435;82;21347;-53
2021/06/23 10:40:23;;;;;;;36.55;7.28;;;;;;;31.38;48.72;100567.13;1736710;82;21350;-51
2021/06/23 10:43:28;;;;;;;29.87;7.10;;;;;;;31.42;48.87;100562.52;1737289;82;21327;-52
2021/06/23 10:46:45;;;;;;;24.98;6.75;;;;;;;31.57;49.18;100569.34;1749956;82;21750;-53
2021/06/23 10:49:58;;;;;;;32.48;7.92;;;;;;;31.67;48.32;100568.58;1765497;79;21389;-52
2021/06/23 10:53:03;;;;;;;40.58;8.48;;;;;;;31.85;48.27;100564.04;1777545;80;21346;-54
2021/06/23 10:56:12;;;;;;;35.30;7.10;;;;;;;31.96;48.31;100564.96;1773388;79;21758;-52
2021/06/23 10:59:43;;;;;;;31.10;6.20;;;;;;;31.94;47.39;100569.23;1774740;80;21689;-51
2021/06/23 11:02:51;;;;;;;35.63;6.80;;;;;;;31.91;47.07;100561.37;1775154;80;21171;-52
2021/06/23 11:05:59;;;;;;;49.05;8.60;;;;;;;31.81;47.56;100559.53;1763330;81;21346;-52
2021/06/23 11:09:26;;;;;;;35.17;7.60;;;;;;;31.81;46.98;100564.35;1782795;80;21193;-52
2021/06/23 11:12:51;;;;;;;45.50;7.92;;;;;;;31.82;47.08;100556.98;1744067;82;21330;-54
2021/06/23 11:15:57;;;;;;;37.65;7.55;;;;;;;31.78;47.27;100564.98;1772601;80;21187;-56
2021/06/23 11:19:18;;;;;;;44.48;7.33;;;;;;;31.65;47.27;100562.98;1749583;81;21369;-54
2021/06/23 11:22:23;;;;;;;29.95;7.10;;;;;;;31.55;47.53;100564.56;1769532;80;21176;-54
2021/06/23 11:25:34;;;;;;;36.98;7.50;;;;;;;31.42;47.87;100570.44;1770258;80;21558;-53
2021/06/23 11:28:39;;;;;;;38.28;8.35;;;;;;;31.42;48.55;100590.26;1774446;80;21172;-54
2021/06/23 11:32:03;;;;;;;47.60;9.53;;;;;;;31.54;48.69;100579.28;1775043;80;21570;-54
2021/06/23 11:35:11;;;;;;;36.20;8.03;;;;;;;31.69;48.65;100573.93;1773458;80;21883;-53
2021/06/23 11:38:16;;;;;;;43.45;7.70;;;;;;;31.98;49.29;100581.05;1767237;80;21321;-54
2021/06/23 11:41:23;;;;;;;57.70;8.90;;;;;;;32.35;48.50;100572.94;1783041;80;21236;-54
2021/06/23 11:44:30;;;;;;;44.20;7.62;;;;;;;32.58;47.52;100578.17;1782897;80;21353;-53
2021/06/23 11:47:35;;;;;;;53.63;8.13;;;;;;;32.70;46.49;100586.39;1781970;80;21793;-54
2021/06/23 11:50:43;;;;;;;60.10;10.28;;;;;;;32.81;45.84;100560.08;1769705;80;21188;-54
2021/06/23 11:53:48;;;;;;;57.10;10.72;;;;;;;32.82;45.95;100564.59;1771488;81;21698;-52
2021/06/23 11:56:53;;;;;;;53.17;8.80;;;;;;;32.76;45.61;100563.03;1764974;81;21216;-52
2021/06/23 11:59:58;;;;;;;45.88;8.43;;;;;;;32.77;45.83;100564.12;1752566;81;21259;-53
2021/06/23 12:03:04;;;;;;;51.85;9.75;;;;;;;32.84;46.19;100567.35;1763149;81;21204;-53
2021/06/23 12:06:10;;;;;;;53.38;9.23;;;;;;;32.81;45.18;100560.08;1770554;81;21776;-53
2021/06/23 12:09:16;;;;;;;52.65;10.68;;;;;;;32.73;45.37;100554.56;1757938;81;21189;-53
2021/06/23 12:12:22;;;;;;;62.62;9.70;;;;;;;32.75;45.75;100565.02;1772051;81;21200;-53
2021/06/23 12:15:29;;;;;;;50.98;10.18;;;;;;;32.96;45.91;100567.69;1772693;81;21279;-55
2021/06/23 12:18:35;;;;;;;57.10;10.78;;;;;;;33.09;45.23;100573.88;1772393;81;21239;-54
2021/06/23 12:21:40;;;;;;;61.68;10.23;;;;;;;33.10;44.83;100574.73;1772491;81;21499;-54
2021/06/23 12:24:45;;;;;;;62.70;9.98;;;;;;;33.05;44.57;100572.85;1772608;81;21283;-52
2021/06/23 12:27:51;;;;;;;54.15;10.25;;;;;;;32.89;45.21;100577.20;1772616;81;21219;-54
2021/06/23 12:30:56;;;;;;;65.30;10.85;;;;;;;32.84;45.27;100570.79;1770241;81;21232;-54
2021/06/23 12:34:09;;;;;;;48.52;10.75;;;;;;;32.70;45.16;100564.27;1742742;81;21776;-53
2021/06/23 12:37:10;;;;;;;66.30;11.60;;;;;;;32.73;45.46;100577.84;1739825;82;21203;-53
2021/06/23 12:40:16;;;;;;;55.33;11.00;;;;;;;32.84;45.42;100567.95;1753244;81;21216;-54
2021/06/23 12:43:21;;;;;;;59.67;10.43;;;;;;;32.86;45.43;100570.72;1755936;81;21180;-54
2021/06/23 12:46:27;;;;;;;69.20;10.88;;;;;;;32.81;44.55;100575.08;1759704;81;21246;-55
2021/06/23 12:49:33;;;;;;;71.82;10.95;;;;;;;32.72;44.80;100579.84;1750207;81;21267;-54
2021/06/23 12:52:38;;;;;;;54.53;11.03;;;;;;;32.78;45.46;100581.39;1750732;82;21458;-54
2021/06/23 12:55:43;;;;;;;68.75;11.60;;;;;;;32.90;45.24;100588.83;1779774;80;21478;-53
2021/06/23 12:58:48;;;;;;;71.85;13.15;;;;;;;32.98;45.36;100584.39;1757028;80;21164;-54
2021/06/23 13:01:54;;;;;;;66.50;10.25;;;;;;;33.04;44.73;100581.69;1745190;80;21296;-53
2021/06/23 13:04:59;;;;;;;60.50;11.10;;;;;;;33.10;44.93;100584.09;1769138;80;21232;-55
2021/06/23 13:08:05;;;;;;;69.45;11.60;;;;;;;33.20;44.12;100579.59;1780725;80;21744;-54
2021/06/23 13:11:12;;;;;;;76.33;11.33;;;;;;;33.11;43.88;100585.75;1781020;80;21432;-54
2021/06/23 13:14:19;;;;;;;66.40;10.75;;;;;;;33.03;44.04;100587.12;1780317;80;21338;-54
2021/06/23 13:17:25;;;;;;;56.20;10.93;;;;;;;32.85;44.66;100590.33;1779875;80;21561;-54
2021/06/23 13:20:31;;;;;;;66.07;13.48;;;;;;;32.70;44.66;100586.39;1781037;80;21377;-54
2021/06/23 13:23:36;;;;;;;72.42;13.18;;;;;;;32.64;44.08;100583.98;1780981;80;21346;-54
2021/06/23 13:26:43;;;;;;;68.22;12.93;;;;;;;32.42;45.01;100583.89;1749072;82;21324;-54
2021/06/23 13:29:49;;;;;;;76.25;12.93;;;;;;;32.40;44.64;100577.69;1749451;82;21274;-55
2021/06/23 13:32:55;;;;;;;79.30;11.68;;;;;;;32.41;45.42;100577.41;1749298;82;21529;-54
2021/06/23 13:36:00;;;;;;;76.37;12.00;;;;;;;32.46;45.07;100582.95;1749691;82;21278;-54
2021/06/23 13:39:06;;;;;;;65.42;11.28;;;;;;;32.46;45.30;100579.30;1771905;80;21259;-54
2021/06/23 13:42:12;;;;;;;68.22;11.95;;;;;;;32.63;45.76;100585.16;1781528;80;21346;-54
2021/06/23 13:45:18;;;;;;;77.65;12.18;;;;;;;32.81;45.17;100582.77;1781509;80;21416;-54
2021/06/23 13:48:24;;;;;;;74.62;11.48;;;;;;;33.01;45.05;100586.02;1778512;80;21319;-54
2021/06/23 13:51:29;;;;;;;58.87;12.55;;;;;;;33.03;44.33;100598.47;1779934;80;21381;-54
2021/06/23 13:54:34;;;;;;;63.23;11.45;;;;;;;32.85;43.92;100597.42;1771918;81;21169;-54
2021/06/23 13:57:40;;;;;;;71.62;12.20;;;;;;;32.69;43.91;100596.07;1742422;80;21705;-54
2021/06/23 14:00:49;;;;;;;59.40;11.55;;;;;;;32.55;44.68;100600.92;1770141;80;21908;-54
2021/06/23 14:03:55;;;;;;;68.95;12.45;;;;;;;32.46;45.95;100605.63;1772560;81;21181;-54
2021/06/23 14:06:59;;;;;;;62.45;12.80;;;;;;;32.32;47.12;100607.59;1778953;80;21334;-54
2021/06/23 14:10:07;;;;;;;64.03;12.10;;;;;;;32.27;47.97;100609.10;1778874;80;21378;-55
2021/06/23 14:13:14;;;;;;;71.53;12.37;;;;;;;32.10;48.49;100606.05;1778972;80;21310;-54
2021/06/23 14:16:19;;;;;;;64.60;12.40;;;;;;;32.00;49.00;100604.81;1774869;80;21184;-52
2021/06/23 14:19:25;;;;;;;60.20;10.80;;;;;;;31.89;49.13;100603.32;1755794;80;21189;-51
2021/06/23 14:22:31;;;;;;;53.25;9.85;;;;;;;31.83;49.23;100606.80;1716255;83;21736;-52
2021/06/23 14:25:35;;;;;;;72.50;13.13;;;;;;;31.75;49.44;100601.00;1716732;83;21366;-53
2021/06/23 14:28:43;;;;;;;58.68;11.38;;;;;;;31.59;49.75;100599.02;1741852;82;21727;-52
2021/06/23 14:31:49;;;;;;;63.52;11.48;;;;;;;31.49;49.97;100604.84;1734587;82;21398;-53
2021/06/23 14:34:55;;;;;;;55.98;11.60;;;;;;;31.42;50.50;100604.41;1723170;82;21784;-52
2021/06/23 14:38:01;;;;;;;71.77;12.28;;;;;;;31.41;50.55;100604.13;1747626;82;21343;-52